sensor_id;sensor_type;location;lat;lon;timestamp;pressure;altitude;pressure_sealevel;temperature;humidity
12759;BME280;20944;47.048;15.390;2024-02-21T00:01:37;98485.75;;;4.79;97.66
12759;BME280;20944;47.048;15.390;2024-02-21T00:04:06;98463.13;;;4.66;97.75
12759;BME280;20944;47.048;15.390;2024-02-21T00:06:34;98461.34;;;4.60;98.38
12759;BME280;20944;47.048;15.390;2024-02-21T00:09:02;98472.66;;;4.67;99.17
12759;BME280;20944;47.048;15.390;2024-02-21T00:11:30;98475.34;;;4.81;98.45
12759;BME280;20944;47.048;15.390;2024-02-21T00:13:59;98467.47;;;4.70;98.49
12759;BME280;20944;47.048;15.390;2024-02-21T00:16:29;98470.97;;;4.72;98.64
12759;BME280;20944;47.048;15.390;2024-02-21T00:19:08;98188.41;;;2.99;96.53
12759;BME280;20944;47.048;15.390;2024-02-21T00:21:41;98476.00;;;4.57;97.81
12759;BME280;20944;47.048;15.390;2024-02-21T00:24:13;98481.03;;;4.42;98.88
12759;BME280;20944;47.048;15.390;2024-02-21T00:26:47;98425.25;;;3.98;99.85
12759;BME280;20944;47.048;15.390;2024-02-21T00:29:16;98477.41;;;4.24;100.00
12759;BME280;20944;47.048;15.390;2024-02-21T00:31:48;98431.25;;;3.94;100.00
12759;BME280;20944;47.048;15.390;2024-02-21T00:34:21;98450.47;;;4.15;100.00
12759;BME280;20944;47.048;15.390;2024-02-21T00:36:53;98368.81;;;3.74;100.00
12759;BME280;20944;47.048;15.390;2024-02-21T00:39:29;98466.94;;;4.15;100.00
12759;BME280;20944;47.048;15.390;2024-02-21T00:42:00;98463.63;;;4.30;100.00
12759;BME280;20944;47.048;15.390;2024-02-21T00:44:32;98463.69;;;4.35;100.00
12759;BME280;20944;47.048;15.390;2024-02-21T00:47:01;98424.38;;;3.99;100.00
12759;BME280;20944;47.048;15.390;2024-02-21T00:49:30;98462.91;;;4.43;100.00
12759;BME280;20944;47.048;15.390;2024-02-21T00:51:59;98435.94;;;4.27;100.00
12759;BME280;20944;47.048;15.390;2024-02-21T00:54:27;98464.63;;;4.43;100.00
12759;BME280;20944;47.048;15.390;2024-02-21T00:57:13;98460.28;;;4.43;100.00
12759;BME280;20944;47.048;15.390;2024-02-21T00:59:41;98461.97;;;4.37;100.00
12759;BME280;20944;47.048;15.390;2024-02-21T01:02:09;98417.53;;;4.04;100.00
12759;BME280;20944;47.048;15.390;2024-02-21T01:04:39;98448.81;;;4.20;100.00
12759;BME280;20944;47.048;15.390;2024-02-21T01:07:07;98471.28;;;4.21;100.00
12759;BME280;20944;47.048;15.390;2024-02-21T01:09:36;98465.22;;;4.17;100.00
12759;BME280;20944;47.048;15.390;2024-02-21T01:12:04;98457.44;;;4.19;100.00
12759;BME280;20944;47.048;15.390;2024-02-21T01:14:32;98449.75;;;4.26;100.00
12759;BME280;20944;47.048;15.390;2024-02-21T01:17:01;98447.25;;;4.37;100.00
12759;BME280;20944;47.048;15.390;2024-02-21T01:19:29;98430.03;;;4.44;100.00
12759;BME280;20944;47.048;15.390;2024-02-21T01:21:59;98334.38;;;3.85;100.00
12759;BME280;20944;47.048;15.390;2024-02-21T01:24:27;98449.06;;;4.43;100.00
12759;BME280;20944;47.048;15.390;2024-02-21T01:26:55;98452.59;;;4.52;100.00
12759;BME280;20944;47.048;15.390;2024-02-21T01:29:23;98449.19;;;4.58;100.00
12759;BME280;20944;47.048;15.390;2024-02-21T01:31:52;98447.44;;;4.55;100.00
12759;BME280;20944;47.048;15.390;2024-02-21T01:34:20;98433.59;;;4.53;100.00
12759;BME280;20944;47.048;15.390;2024-02-21T01:36:49;98438.78;;;4.55;100.00
12759;BME280;20944;47.048;15.390;2024-02-21T01:39:18;98443.94;;;4.50;100.00
12759;BME280;20944;47.048;15.390;2024-02-21T01:41:46;98443.94;;;4.50;100.00
12759;BME280;20944;47.048;15.390;2024-02-21T01:44:15;98434.47;;;4.57;100.00
12759;BME280;20944;47.048;15.390;2024-02-21T01:46:43;98442.31;;;4.63;100.00
12759;BME280;20944;47.048;15.390;2024-02-21T01:49:12;98421.56;;;4.63;100.00
12759;BME280;20944;47.048;15.390;2024-02-21T01:51:40;98369.47;;;4.42;100.00
12759;BME280;20944;47.048;15.390;2024-02-21T01:54:10;98415.59;;;4.73;100.00
12759;BME280;20944;47.048;15.390;2024-02-21T01:56:40;98433.66;;;4.63;100.00
12759;BME280;20944;47.048;15.390;2024-02-21T01:59:09;98402.16;;;4.21;100.00
12759;BME280;20944;47.048;15.390;2024-02-21T02:01:38;98406.50;;;4.22;100.00
12759;BME280;20944;47.048;15.390;2024-02-21T02:04:07;98411.56;;;4.12;100.00
12759;BME280;20944;47.048;15.390;2024-02-21T02:06:35;98424.72;;;4.28;100.00
12759;BME280;20944;47.048;15.390;2024-02-21T02:09:04;98405.69;;;4.31;100.00
12759;BME280;20944;47.048;15.390;2024-02-21T02:11:32;98415.31;;;4.43;100.00
12759;BME280;20944;47.048;15.390;2024-02-21T02:14:02;98334.63;;;4.11;100.00
12759;BME280;20944;47.048;15.390;2024-02-21T02:16:30;98423.22;;;4.56;100.00
12759;BME280;20944;47.048;15.390;2024-02-21T02:18:59;98405.81;;;4.45;100.00
12759;BME280;20944;47.048;15.390;2024-02-21T02:21:30;98395.44;;;4.42;100.00
12759;BME280;20944;47.048;15.390;2024-02-21T02:24:01;98423.22;;;4.55;100.00
12759;BME280;20944;47.048;15.390;2024-02-21T02:26:30;98378.19;;;4.48;100.00
12759;BME280;20944;47.048;15.390;2024-02-21T02:28:58;98418.84;;;4.46;100.00
12759;BME280;20944;47.048;15.390;2024-02-21T02:31:27;98419.66;;;4.44;100.00
12759;BME280;20944;47.048;15.390;2024-02-21T02:33:56;98453.50;;;4.53;100.00
12759;BME280;20944;47.048;15.390;2024-02-21T02:36:24;98403.28;;;4.51;100.00
12759;BME280;20944;47.048;15.390;2024-02-21T02:38:53;98399.00;;;4.53;100.00
12759;BME280;20944;47.048;15.390;2024-02-21T02:41:22;98209.56;;;3.40;100.00
12759;BME280;20944;47.048;15.390;2024-02-21T02:43:51;98385.94;;;4.45;100.00
12759;BME280;20944;47.048;15.390;2024-02-21T02:46:19;98398.28;;;4.74;100.00
12759;BME280;20944;47.048;15.390;2024-02-21T02:48:47;98395.66;;;4.71;100.00
12759;BME280;20944;47.048;15.390;2024-02-21T02:51:16;98396.50;;;4.71;100.00
12759;BME280;20944;47.048;15.390;2024-02-21T02:53:44;98402.63;;;4.73;100.00
12759;BME280;20944;47.048;15.390;2024-02-21T02:56:14;98307.06;;;4.25;100.00
12759;BME280;20944;47.048;15.390;2024-02-21T02:58:45;98390.53;;;4.78;100.00
12759;BME280;20944;47.048;15.390;2024-02-21T03:01:13;98399.16;;;4.73;100.00
12759;BME280;20944;47.048;15.390;2024-02-21T03:03:41;98387.03;;;4.73;100.00
12759;BME280;20944;47.048;15.390;2024-02-21T03:06:12;98358.38;;;4.59;100.00
12759;BME280;20944;47.048;15.390;2024-02-21T03:08:40;98384.53;;;4.84;100.00
12759;BME280;20944;47.048;15.390;2024-02-21T03:11:09;98368.81;;;4.69;100.00
12759;BME280;20944;47.048;15.390;2024-02-21T03:13:38;98363.69;;;4.76;100.00
12759;BME280;20944;47.048;15.390;2024-02-21T03:16:08;98353.28;;;4.76;100.00
12759;BME280;20944;47.048;15.390;2024-02-21T03:18:36;98382.03;;;5.01;100.00
12759;BME280;20944;47.048;15.390;2024-02-21T03:21:04;98362.94;;;4.91;100.00
12759;BME280;20944;47.048;15.390;2024-02-21T03:23:33;98381.16;;;4.97;100.00
12759;BME280;20944;47.048;15.390;2024-02-21T03:26:01;98308.91;;;4.40;100.00
12759;BME280;20944;47.048;15.390;2024-02-21T03:28:29;98361.91;;;4.69;100.00
12759;BME280;20944;47.048;15.390;2024-02-21T03:30:57;98051.97;;;2.86;100.00
12759;BME280;20944;47.048;15.390;2024-02-21T03:33:27;98347.97;;;4.55;100.00
12759;BME280;20944;47.048;15.390;2024-02-21T03:35:56;98379.25;;;4.76;100.00
12759;BME280;20944;47.048;15.390;2024-02-21T03:38:24;98392.28;;;4.78;100.00
12759;BME280;20944;47.048;15.390;2024-02-21T03:40:52;98384.50;;;4.82;100.00
12759;BME280;20944;47.048;15.390;2024-02-21T03:43:20;98359.34;;;4.74;100.00
12759;BME280;20944;47.048;15.390;2024-02-21T03:45:49;98352.47;;;4.79;100.00
12759;BME280;20944;47.048;15.390;2024-02-21T03:48:17;98381.94;;;4.88;100.00
12759;BME280;20944;47.048;15.390;2024-02-21T03:50:46;98383.63;;;4.79;100.00
12759;BME280;20944;47.048;15.390;2024-02-21T03:53:15;98375.75;;;4.71;100.00
12759;BME280;20944;47.048;15.390;2024-02-21T03:55:43;98361.75;;;4.52;100.00
12759;BME280;20944;47.048;15.390;2024-02-21T03:58:11;98301.97;;;4.36;100.00
12759;BME280;20944;47.048;15.390;2024-02-21T04:00:39;98299.28;;;4.26;100.00
12759;BME280;20944;47.048;15.390;2024-02-21T04:03:08;98337.50;;;4.46;100.00
12759;BME280;20944;47.048;15.390;2024-02-21T04:05:36;98244.59;;;3.94;100.00
12759;BME280;20944;47.048;15.390;2024-02-21T04:08:06;98373.91;;;4.56;100.00
12759;BME280;20944;47.048;15.390;2024-02-21T04:10:35;98369.53;;;4.49;100.00
12759;BME280;20944;47.048;15.390;2024-02-21T04:13:05;98275.75;;;4.00;100.00
12759;BME280;20944;47.048;15.390;2024-02-21T04:15:34;98338.25;;;4.32;100.00
12759;BME280;20944;47.048;15.390;2024-02-21T04:18:02;98362.59;;;4.47;100.00
12759;BME280;20944;47.048;15.390;2024-02-21T04:20:31;98365.28;;;4.57;100.00
12759;BME280;20944;47.048;15.390;2024-02-21T04:22:59;98369.59;;;4.54;100.00
12759;BME280;20944;47.048;15.390;2024-02-21T04:25:29;98340.06;;;4.43;100.00
12759;BME280;20944;47.048;15.390;2024-02-21T04:27:57;98363.53;;;4.55;100.00
12759;BME280;20944;47.048;15.390;2024-02-21T04:30:26;98357.44;;;4.48;100.00
12759;BME280;20944;47.048;15.390;2024-02-21T04:32:54;98315.66;;;4.19;100.00
12759;BME280;20944;47.048;15.390;2024-02-21T04:35:22;98307.88;;;4.19;100.00
12759;BME280;20944;47.048;15.390;2024-02-21T04:37:51;98355.75;;;4.55;100.00
12759;BME280;20944;47.048;15.390;2024-02-21T04:40:19;98358.34;;;4.55;100.00
12759;BME280;20944;47.048;15.390;2024-02-21T04:42:49;98359.16;;;4.48;100.00
12759;BME280;20944;47.048;15.390;2024-02-21T04:45:17;98249.69;;;3.85;100.00
12759;BME280;20944;47.048;15.390;2024-02-21T04:47:45;98335.72;;;4.39;100.00
12759;BME280;20944;47.048;15.390;2024-02-21T04:50:14;98347.06;;;4.50;100.00
12759;BME280;20944;47.048;15.390;2024-02-21T04:52:42;98336.63;;;4.45;100.00
12759;BME280;20944;47.048;15.390;2024-02-21T04:55:11;98347.09;;;4.54;100.00
12759;BME280;20944;47.048;15.390;2024-02-21T04:57:39;98026.66;;;2.57;100.00
12759;BME280;20944;47.048;15.390;2024-02-21T05:00:10;98281.72;;;3.92;100.00
12759;BME280;20944;47.048;15.390;2024-02-21T05:02:38;98348.69;;;4.39;100.00
12759;BME280;20944;47.048;15.390;2024-02-21T05:05:07;98351.34;;;4.45;100.00
12759;BME280;20944;47.048;15.390;2024-02-21T05:07:35;98350.41;;;4.38;100.00
12759;BME280;20944;47.048;15.390;2024-02-21T05:10:05;98359.09;;;4.42;100.00
12759;BME280;20944;47.048;15.390;2024-02-21T05:12:35;98353.09;;;4.47;100.00
12759;BME280;20944;47.048;15.390;2024-02-21T05:15:04;98295.66;;;4.03;100.00
12759;BME280;20944;47.048;15.390;2024-02-21T05:17:33;98335.69;;;4.34;100.00
12759;BME280;20944;47.048;15.390;2024-02-21T05:20:02;98318.31;;;4.25;100.00
12759;BME280;20944;47.048;15.390;2024-02-21T05:22:31;98349.50;;;4.31;100.00
12759;BME280;20944;47.048;15.390;2024-02-21T05:24:59;98286.97;;;3.99;100.00
12759;BME280;20944;47.048;15.390;2024-02-21T05:27:27;98343.44;;;4.29;100.00
12759;BME280;20944;47.048;15.390;2024-02-21T05:29:55;98337.28;;;4.20;100.00
12759;BME280;20944;47.048;15.390;2024-02-21T05:32:25;98339.81;;;4.09;100.00
12759;BME280;20944;47.048;15.390;2024-02-21T05:34:55;98323.22;;;3.95;100.00
12759;BME280;20944;47.048;15.390;2024-02-21T05:37:25;98288.47;;;3.71;100.00
12759;BME280;20944;47.048;15.390;2024-02-21T05:39:53;98345.81;;;4.06;100.00
12759;BME280;20944;47.048;15.390;2024-02-21T05:42:21;98331.16;;;4.09;100.00
12759;BME280;20944;47.048;15.390;2024-02-21T05:44:50;98336.41;;;4.16;100.00
12759;BME280;20944;47.048;15.390;2024-02-21T05:47:18;98336.34;;;4.13;100.00
12759;BME280;20944;47.048;15.390;2024-02-21T05:49:47;98291.06;;;3.73;100.00
12759;BME280;20944;47.048;15.390;2024-02-21T05:52:17;98344.06;;;4.02;100.00
12759;BME280;20944;47.048;15.390;2024-02-21T05:54:45;98350.94;;;4.02;100.00
12759;BME280;20944;47.048;15.390;2024-02-21T05:57:17;98317.03;;;3.81;100.00
12759;BME280;20944;47.048;15.390;2024-02-21T05:59:46;98299.63;;;3.66;100.00
12759;BME280;20944;47.048;15.390;2024-02-21T06:02:14;98349.19;;;3.98;100.00
12759;BME280;20944;47.048;15.390;2024-02-21T06:04:42;98328.41;;;3.93;100.00
12759;BME280;20944;47.048;15.390;2024-02-21T06:07:11;98336.31;;;4.07;100.00
12759;BME280;20944;47.048;15.390;2024-02-21T06:09:41;98341.47;;;4.07;100.00
12759;BME280;20944;47.048;15.390;2024-02-21T06:12:11;98343.22;;;4.06;100.00
12759;BME280;20944;47.048;15.390;2024-02-21T06:14:39;98313.81;;;4.06;100.00
12759;BME280;20944;47.048;15.390;2024-02-21T06:17:07;98329.38;;;4.03;100.00
12759;BME280;20944;47.048;15.390;2024-02-21T06:19:35;98311.97;;;3.91;100.00
12759;BME280;20944;47.048;15.390;2024-02-21T06:22:04;98332.03;;;4.09;100.00
12759;BME280;20944;47.048;15.390;2024-02-21T06:24:35;98320.69;;;4.01;100.00
12759;BME280;20944;47.048;15.390;2024-02-21T06:27:04;98317.34;;;4.14;100.00
12759;BME280;20944;47.048;15.390;2024-02-21T06:29:37;98319.06;;;4.14;100.00
12759;BME280;20944;47.048;15.390;2024-02-21T06:32:05;98329.59;;;4.27;100.00
12759;BME280;20944;47.048;15.390;2024-02-21T06:34:34;98315.72;;;4.24;100.00
12759;BME280;20944;47.048;15.390;2024-02-21T06:37:02;98301.00;;;4.21;100.00
12759;BME280;20944;47.048;15.390;2024-02-21T06:39:31;98333.22;;;4.52;100.00
12759;BME280;20944;47.048;15.390;2024-02-21T06:41:59;98301.16;;;4.43;100.00
12759;BME280;20944;47.048;15.390;2024-02-21T06:44:31;98331.66;;;4.77;100.00
12759;BME280;20944;47.048;15.390;2024-02-21T06:47:03;98346.53;;;4.97;100.00
12759;BME280;20944;47.048;15.390;2024-02-21T06:49:32;98347.50;;;5.17;100.00
12759;BME280;20944;47.048;15.390;2024-02-21T06:52:00;98335.34;;;5.13;100.00
12759;BME280;20944;47.048;15.390;2024-02-21T06:54:29;98339.75;;;5.23;100.00
12759;BME280;20944;47.048;15.390;2024-02-21T06:56:57;98346.75;;;5.43;100.00
12759;BME280;20944;47.048;15.390;2024-02-21T06:59:25;98345.03;;;5.51;100.00
12759;BME280;20944;47.048;15.390;2024-02-21T07:01:55;98354.59;;;5.59;100.00
12759;BME280;20944;47.048;15.390;2024-02-21T07:04:23;98356.34;;;5.54;100.00
12759;BME280;20944;47.048;15.390;2024-02-21T07:06:52;98354.59;;;5.59;100.00
12759;BME280;20944;47.048;15.390;2024-02-21T07:09:21;98345.97;;;5.63;100.00
12759;BME280;20944;47.048;15.390;2024-02-21T07:11:50;98352.94;;;5.74;100.00
12759;BME280;20944;47.048;15.390;2024-02-21T07:14:18;98347.72;;;5.67;100.00
12759;BME280;20944;47.048;15.390;2024-02-21T07:16:47;98330.38;;;5.60;100.00
12759;BME280;20944;47.048;15.390;2024-02-21T07:19:17;98353.81;;;5.74;100.00
12759;BME280;20944;47.048;15.390;2024-02-21T07:21:46;98361.63;;;5.79;100.00
12759;BME280;20944;47.048;15.390;2024-02-21T07:24:14;98354.69;;;5.79;100.00
12759;BME280;20944;47.048;15.390;2024-02-21T07:26:43;98353.81;;;5.79;100.00
12759;BME280;20944;47.048;15.390;2024-02-21T07:29:11;98348.63;;;5.83;100.00
12759;BME280;20944;47.048;15.390;2024-02-21T07:31:40;98329.53;;;5.77;100.00
12759;BME280;20944;47.048;15.390;2024-02-21T07:34:09;98346.94;;;5.94;100.00
12759;BME280;20944;47.048;15.390;2024-02-21T07:36:39;98336.56;;;6.05;100.00
12759;BME280;20944;47.048;15.390;2024-02-21T07:39:09;98294.94;;;5.91;99.54
12759;BME280;20944;47.048;15.390;2024-02-21T07:41:38;98331.38;;;6.11;100.00
12759;BME280;20944;47.048;15.390;2024-02-21T07:44:08;98338.34;;;6.23;100.00
12759;BME280;20944;47.048;15.390;2024-02-21T07:46:36;98337.44;;;6.35;100.00
12759;BME280;20944;47.048;15.390;2024-02-21T07:49:04;98334.88;;;6.44;100.00
12759;BME280;20944;47.048;15.390;2024-02-21T07:51:33;98334.00;;;6.57;97.62
12759;BME280;20944;47.048;15.390;2024-02-21T07:54:05;98295.78;;;6.58;99.07
12759;BME280;20944;47.048;15.390;2024-02-21T07:56:37;98325.28;;;6.81;97.26
12759;BME280;20944;47.048;15.390;2024-02-21T07:59:05;98317.41;;;7.02;96.21
12759;BME280;20944;47.048;15.390;2024-02-21T08:01:34;98316.50;;;7.23;93.37
12759;BME280;20944;47.048;15.390;2024-02-21T08:04:03;98312.03;;;7.47;90.80
12759;BME280;20944;47.048;15.390;2024-02-21T08:06:31;98289.31;;;7.72;88.01
12759;BME280;20944;47.048;15.390;2024-02-21T08:09:00;98302.97;;;8.10;86.73
12759;BME280;20944;47.048;15.390;2024-02-21T08:11:30;98297.59;;;8.38;85.50
12759;BME280;20944;47.048;15.390;2024-02-21T08:13:59;98300.06;;;8.55;84.93
12759;BME280;20944;47.048;15.390;2024-02-21T08:16:27;98277.47;;;8.48;84.33
12759;BME280;20944;47.048;15.390;2024-02-21T08:18:55;98299.13;;;8.60;82.53
12759;BME280;20944;47.048;15.390;2024-02-21T08:21:24;98285.19;;;8.60;82.87
12759;BME280;20944;47.048;15.390;2024-02-21T08:23:53;98298.88;;;8.88;81.04
12759;BME280;20944;47.048;15.390;2024-02-21T08:26:21;98295.31;;;8.95;79.30
12759;BME280;20944;47.048;15.390;2024-02-21T08:28:51;98303.28;;;8.80;76.69
12759;BME280;20944;47.048;15.390;2024-02-21T08:31:19;98299.97;;;8.64;78.85
12759;BME280;20944;47.048;15.390;2024-02-21T08:33:47;98268.03;;;8.36;80.19
12759;BME280;20944;47.048;15.390;2024-02-21T08:36:19;98230.84;;;8.02;78.82
12759;BME280;20944;47.048;15.390;2024-02-21T08:38:47;98285.47;;;8.23;78.30
12759;BME280;20944;47.048;15.390;2024-02-21T08:41:15;98267.41;;;8.00;79.41
12759;BME280;20944;47.048;15.390;2024-02-21T08:43:43;98295.06;;;8.26;79.79
12759;BME280;20944;47.048;15.390;2024-02-21T08:46:13;98282.75;;;8.45;77.79
12759;BME280;20944;47.048;15.390;2024-02-21T08:48:42;98282.53;;;8.68;76.52
12759;BME280;20944;47.048;15.390;2024-02-21T08:51:12;98218.22;;;8.54;74.68
12759;BME280;20944;47.048;15.390;2024-02-21T08:53:41;98291.50;;;9.24;73.18
12759;BME280;20944;47.048;15.390;2024-02-21T08:56:09;98279.78;;;9.57;71.69
12759;BME280;20944;47.048;15.390;2024-02-21T08:58:38;98274.19;;;9.83;70.73
12759;BME280;20944;47.048;15.390;2024-02-21T09:01:07;98275.56;;;10.07;69.77
12759;BME280;20944;47.048;15.390;2024-02-21T09:03:38;98267.91;;;9.93;68.54
12759;BME280;20944;47.048;15.390;2024-02-21T09:06:10;98204.09;;;9.41;68.75
12759;BME280;20944;47.048;15.390;2024-02-21T09:08:40;98233.72;;;9.43;68.74
12759;BME280;20944;47.048;15.390;2024-02-21T09:11:09;98281.53;;;9.55;69.92
12759;BME280;20944;47.048;15.390;2024-02-21T09:13:38;98260.66;;;9.52;69.43
12759;BME280;20944;47.048;15.390;2024-02-21T09:16:06;98275.09;;;9.79;69.46
12759;BME280;20944;47.048;15.390;2024-02-21T09:18:37;98268.50;;;10.10;68.05
12759;BME280;20944;47.048;15.390;2024-02-21T09:21:05;98250.78;;;10.29;65.80
12759;BME280;20944;47.048;15.390;2024-02-21T09:23:34;98236.63;;;10.41;66.00
12759;BME280;20944;47.048;15.390;2024-02-21T09:26:02;98249.22;;;10.68;63.30
12759;BME280;20944;47.048;15.390;2024-02-21T09:28:31;98258.00;;;10.66;60.76
12759;BME280;20944;47.048;15.390;2024-02-21T09:31:01;98223.59;;;10.36;60.30
12759;BME280;20944;47.048;15.390;2024-02-21T09:33:30;98253.06;;;10.50;60.47
12759;BME280;20944;47.048;15.390;2024-02-21T09:36:01;98247.00;;;10.47;60.40
12759;BME280;20944;47.048;15.390;2024-02-21T09:38:29;98251.44;;;10.42;60.84
12759;BME280;20944;47.048;15.390;2024-02-21T09:40:59;98233.34;;;10.28;62.43
12759;BME280;20944;47.048;15.390;2024-02-21T09:43:29;98226.41;;;10.24;62.03
12759;BME280;20944;47.048;15.390;2024-02-21T09:45:58;98241.28;;;10.23;63.23
12759;BME280;20944;47.048;15.390;2024-02-21T09:48:39;98224.78;;;10.15;63.16
12759;BME280;20944;47.048;15.390;2024-02-21T09:51:14;98224.84;;;10.12;61.41
12759;BME280;20944;47.048;15.390;2024-02-21T09:53:43;98229.09;;;10.18;66.27
12759;BME280;20944;47.048;15.390;2024-02-21T09:56:28;98208.38;;;10.04;65.37
12759;BME280;20944;47.048;15.390;2024-02-21T09:58:57;98229.16;;;10.15;63.86
12759;BME280;20944;47.048;15.390;2024-02-21T10:01:26;98217.72;;;10.20;64.37
12759;BME280;20944;47.048;15.390;2024-02-21T10:04:01;98233.31;;;10.31;62.92
12759;BME280;20944;47.048;15.390;2024-02-21T10:06:33;98222.78;;;10.33;62.91
12759;BME280;20944;47.048;15.390;2024-02-21T10:09:04;98138.00;;;9.87;62.45
12759;BME280;20944;47.048;15.390;2024-02-21T10:11:33;98158.75;;;9.98;61.89
12759;BME280;20944;47.048;15.390;2024-02-21T10:14:04;98071.56;;;9.42;63.05
12759;BME280;20944;47.048;15.390;2024-02-21T10:16:33;98207.22;;;10.23;62.72
12759;BME280;20944;47.048;15.390;2024-02-21T10:19:02;98186.44;;;10.11;63.65
12759;BME280;20944;47.048;15.390;2024-02-21T10:21:31;98193.25;;;10.21;63.21
12759;BME280;20944;47.048;15.390;2024-02-21T10:24:00;98211.13;;;10.49;63.35
12759;BME280;20944;47.048;15.390;2024-02-21T10:26:29;98212.53;;;10.70;60.84
12759;BME280;20944;47.048;15.390;2024-02-21T10:28:57;98204.94;;;10.99;61.27
12759;BME280;20944;47.048;15.390;2024-02-21T10:31:26;98187.13;;;11.15;59.33
12759;BME280;20944;47.048;15.390;2024-02-21T10:33:56;98205.03;;;11.37;57.32
12759;BME280;20944;47.048;15.390;2024-02-21T10:36:25;98160.22;;;11.07;55.82
12759;BME280;20944;47.048;15.390;2024-02-21T10:38:54;98141.75;;;10.70;56.43
12759;BME280;20944;47.048;15.390;2024-02-21T10:41:24;98183.22;;;10.93;57.92
12759;BME280;20944;47.048;15.390;2024-02-21T10:43:54;98175.47;;;10.87;57.42
12759;BME280;20944;47.048;15.390;2024-02-21T10:46:24;98179.88;;;10.85;57.69
12759;BME280;20944;47.048;15.390;2024-02-21T10:49:02;98116.81;;;10.50;56.97
12759;BME280;20944;47.048;15.390;2024-02-21T10:51:34;98137.91;;;10.86;57.11
12759;BME280;20944;47.048;15.390;2024-02-21T10:54:13;98154.44;;;11.30;56.63
12759;BME280;20944;47.048;15.390;2024-02-21T10:56:49;98156.41;;;11.59;54.47
12759;BME280;20944;47.048;15.390;2024-02-21T10:59:19;98147.34;;;11.72;53.57
12759;BME280;20944;47.048;15.390;2024-02-21T11:01:48;98135.88;;;11.76;54.60
12759;BME280;20944;47.048;15.390;2024-02-21T11:04:17;98125.13;;;11.87;53.45
12759;BME280;20944;47.048;15.390;2024-02-21T11:06:46;98126.69;;;11.96;53.42
12759;BME280;20944;47.048;15.390;2024-02-21T11:09:15;98124.56;;;12.10;52.61
12759;BME280;20944;47.048;15.390;2024-02-21T11:11:44;98112.25;;;12.12;52.74
12759;BME280;20944;47.048;15.390;2024-02-21T11:14:20;98107.94;;;12.09;52.87
12759;BME280;20944;47.048;15.390;2024-02-21T11:16:48;98103.38;;;12.16;53.46
12759;BME280;20944;47.048;15.390;2024-02-21T11:19:20;98111.97;;;12.23;53.34
12759;BME280;20944;47.048;15.390;2024-02-21T11:21:51;98084.84;;;12.22;51.65
12759;BME280;20944;47.048;15.390;2024-02-21T11:24:27;98103.31;;;12.52;52.08
12759;BME280;20944;47.048;15.390;2024-02-21T11:26:56;98101.78;;;12.74;52.65
12759;BME280;20944;47.048;15.390;2024-02-21T11:29:42;98094.56;;;12.81;50.07
12759;BME280;20944;47.048;15.390;2024-02-21T11:32:11;98090.34;;;13.05;51.13
12759;BME280;20944;47.048;15.390;2024-02-21T11:34:40;98033.63;;;12.96;50.26
12759;BME280;20944;47.048;15.390;2024-02-21T11:37:15;98070.63;;;13.18;49.54
12759;BME280;20944;47.048;15.390;2024-02-21T11:39:44;98056.56;;;13.20;48.73
12759;BME280;20944;47.048;15.390;2024-02-21T11:42:12;98057.44;;;13.21;48.55
12759;BME280;20944;47.048;15.390;2024-02-21T11:44:42;98053.06;;;13.20;49.27
12759;BME280;20944;47.048;15.390;2024-02-21T11:47:10;98052.88;;;13.26;48.47
12759;BME280;20944;47.048;15.390;2024-02-21T11:49:44;98018.94;;;13.17;49.25
12759;BME280;20944;47.048;15.390;2024-02-21T11:52:13;98021.13;;;13.31;47.39
12759;BME280;20944;47.048;15.390;2024-02-21T11:54:42;98023.34;;;13.16;46.64
12759;BME280;20944;47.048;15.390;2024-02-21T11:57:11;98020.88;;;13.10;48.00
12759;BME280;20944;47.048;15.390;2024-02-21T11:59:40;97860.97;;;12.11;47.46
12759;BME280;20944;47.048;15.390;2024-02-21T12:02:10;97971.94;;;12.78;48.47
12759;BME280;20944;47.048;15.390;2024-02-21T12:04:38;98019.03;;;13.14;47.53
12759;BME280;20944;47.048;15.390;2024-02-21T12:07:07;98000.84;;;13.06;47.45
12759;BME280;20944;47.048;15.390;2024-02-21T12:09:35;97990.38;;;13.05;47.71
12759;BME280;20944;47.048;15.390;2024-02-21T12:12:05;98008.13;;;13.26;47.20
12759;BME280;20944;47.048;15.390;2024-02-21T12:14:35;97999.88;;;13.37;48.30
12759;BME280;20944;47.048;15.390;2024-02-21T12:17:04;98000.41;;;13.48;49.06
12759;BME280;20944;47.048;15.390;2024-02-21T12:19:34;97990.00;;;13.43;46.76
12759;BME280;20944;47.048;15.390;2024-02-21T12:22:02;97980.47;;;13.41;47.66
12759;BME280;20944;47.048;15.390;2024-02-21T12:24:33;97978.56;;;13.44;47.86
12759;BME280;20944;47.048;15.390;2024-02-21T12:27:03;97982.06;;;13.45;48.91
12759;BME280;20944;47.048;15.390;2024-02-21T12:29:32;97972.41;;;13.45;48.43
12759;BME280;20944;47.048;15.390;2024-02-21T12:32:00;97964.88;;;13.35;46.32
12759;BME280;20944;47.048;15.390;2024-02-21T12:34:31;97966.41;;;13.14;47.27
12759;BME280;20944;47.048;15.390;2024-02-21T12:37:21;97930.91;;;12.99;47.18
12759;BME280;20944;47.048;15.390;2024-02-21T12:39:49;97951.66;;;13.36;47.09
12759;BME280;20944;47.048;15.390;2024-02-21T12:42:18;97944.13;;;13.75;47.40
12759;BME280;20944;47.048;15.390;2024-02-21T12:44:46;97935.97;;;14.08;46.08
12759;BME280;20944;47.048;15.390;2024-02-21T12:47:14;97944.03;;;14.27;45.69
12759;BME280;20944;47.048;15.390;2024-02-21T12:49:43;97935.31;;;14.25;45.73
12759;BME280;20944;47.048;15.390;2024-02-21T12:52:12;97903.41;;;14.09;44.98
12759;BME280;20944;47.048;15.390;2024-02-21T12:54:42;97938.53;;;14.33;44.66
12759;BME280;20944;47.048;15.390;2024-02-21T12:57:11;97932.31;;;14.57;44.53
12759;BME280;20944;47.048;15.390;2024-02-21T12:59:39;97937.31;;;14.87;44.84
12759;BME280;20944;47.048;15.390;2024-02-21T13:02:07;97934.66;;;15.31;44.48
12759;BME280;20944;47.048;15.390;2024-02-21T13:04:37;97897.28;;;15.60;42.57